createdAt,value
2017-07-08T09:06:08.590Z,37.07
2017-07-08T09:07:08.295Z,37.15
2017-07-08T09:08:08.304Z,37.54
2017-07-08T09:09:08.310Z,38.41
2017-07-08T09:10:08.491Z,37.73
2017-07-08T09:11:08.009Z,37.12
2017-07-08T09:12:08.337Z,37.9
2017-07-08T09:13:08.347Z,37.88
2017-07-08T09:14:08.035Z,37.49
2017-07-08T09:15:08.104Z,37.39
2017-07-08T09:16:08.374Z,38.18
2017-07-08T09:17:08.385Z,37.69
2017-07-08T09:18:08.080Z,38.67
2017-07-08T09:19:08.082Z,38.57
2017-07-08T09:20:08.154Z,38.76
2017-07-08T09:21:08.396Z,37.96
2017-07-08T09:22:08.440Z,38.65
2017-07-08T09:23:08.117Z,38.94
2017-07-08T09:24:08.443Z,38.65
2017-07-08T09:25:08.253Z,39.22
2017-07-08T09:26:08.464Z,39.41
2017-07-08T09:27:08.471Z,39.51
2017-07-08T09:28:08.160Z,37.45
2017-07-08T09:29:08.170Z,37.65
2017-07-08T09:30:08.286Z,37.85
2017-07-08T09:31:08.505Z,37.75
2017-07-08T09:32:08.520Z,38.63
2017-07-08T09:33:08.522Z,38.35
2017-07-08T09:34:08.530Z,38.26
2017-07-08T09:35:08.784Z,38.92
2017-07-08T09:36:13.553Z,38.73
2017-07-08T09:37:08.564Z,38.73
2017-07-08T09:38:08.570Z,38.82
2017-07-08T09:39:08.252Z,38.16
2017-07-08T09:40:08.262Z,38.65
2017-07-08T09:41:08.282Z,36.98
2017-07-08T09:42:08.595Z,36.98
2017-07-08T09:43:08.295Z,38.84
2017-07-08T09:44:08.617Z,37.77
2017-07-08T09:45:08.888Z,38.18
2017-07-08T09:46:08.311Z,37.69
2017-07-08T09:47:08.659Z,37.98
2017-07-08T09:48:08.644Z,38.08
2017-07-08T09:49:08.660Z,39.04
2017-07-08T09:50:08.383Z,38.84
2017-07-08T09:51:08.365Z,39.23
2017-07-08T09:52:08.688Z,38.65
2017-07-08T09:53:08.369Z,39.14
2017-07-08T09:54:08.378Z,39.92
2017-07-08T09:55:09.019Z,39.72
2017-07-08T09:56:08.740Z,40.9
2017-07-08T09:57:08.738Z,39.33
2017-07-08T09:58:08.763Z,38.92
2017-07-08T09:59:08.891Z,37.45
2017-07-08T10:00:08.561Z,37.06
2017-07-08T10:01:08.472Z,36.77
2017-07-08T10:02:08.829Z,36.77
2017-07-08T10:03:08.845Z,37.65
2017-07-08T10:04:08.457Z,36.87
2017-07-08T10:05:08.709Z,36.28
2017-07-08T10:06:08.819Z,37.43
2017-07-08T10:07:08.820Z,38.51
2017-07-08T10:08:08.819Z,38.71
2017-07-08T10:09:08.820Z,39.1
2017-07-08T10:10:09.101Z,39.2
2017-07-08T10:11:08.524Z,39.2
2017-07-08T10:12:08.850Z,39.2
2017-07-08T10:13:08.529Z,39.1
2017-07-08T10:14:08.535Z,39.39
2017-07-08T10:15:09.201Z,39.49
2017-07-08T10:16:08.871Z,39.51
2017-07-08T10:17:08.882Z,39.92
2017-07-08T10:18:08.568Z,40.6
2017-07-08T10:19:08.575Z,38.84
2017-07-08T10:20:09.280Z,38.47
2017-07-08T10:21:08.916Z,39.25
2017-07-08T10:22:11.621Z,39.76
2017-07-08T10:23:08.608Z,37.61
2017-07-08T10:24:08.938Z,36.92
2017-07-08T10:25:09.286Z,36.43
2017-07-08T10:26:08.960Z,36.24
2017-07-08T10:27:08.641Z,36.33
2017-07-08T10:28:08.971Z,36.14
2017-07-08T10:29:08.674Z,34.98
2017-07-08T10:30:08.989Z,35.35
2017-07-08T10:31:08.678Z,35.65
2017-07-08T10:32:09.017Z,36.33
2017-07-08T10:33:08.713Z,36.33
2017-07-08T10:34:08.720Z,36.53
2017-07-08T10:35:09.344Z,37.71
2017-07-08T10:36:09.044Z,37.69
2017-07-08T10:37:09.060Z,37.98
2017-07-08T10:38:08.743Z,37.79
2017-07-08T10:39:08.748Z,39.04
2017-07-08T10:40:09.012Z,38.92
2017-07-08T10:41:08.765Z,39.43
2017-07-08T10:42:09.107Z,38.45
2017-07-08T10:43:09.109Z,39.14
2017-07-08T10:44:09.105Z,38.16
2017-07-08T10:45:09.070Z,38.55
2017-07-08T10:46:09.133Z,38.55
2017-07-08T10:47:08.820Z,39.62
2017-07-08T10:48:09.656Z,38.14
2017-07-08T10:49:09.681Z,37.87
2017-07-08T10:50:09.847Z,37.96
2017-07-08T10:51:09.260Z,37.69
2017-07-08T10:52:09.762Z,37
2017-07-08T10:53:09.338Z,36.8
2017-07-08T10:54:09.293Z,36.9
2017-07-08T10:55:09.929Z,37
2017-07-08T10:56:09.748Z,36.9
2017-07-08T10:57:08.901Z,36.9
2017-07-08T10:58:08.925Z,36.8
2017-07-08T10:59:08.906Z,36.51
2017-07-08T11:00:09.263Z,37.88
2017-07-08T11:01:09.284Z,36.71
2017-07-08T11:02:09.316Z,36.61
2017-07-08T11:03:09.318Z,36.71
2017-07-08T11:04:09.269Z,37
2017-07-08T11:05:09.285Z,37.39
2017-07-08T11:06:09.288Z,36.41
2017-07-08T11:07:09.308Z,36.12
2017-07-08T11:08:08.984Z,35.94
2017-07-08T11:09:08.994Z,35.25
2017-07-08T11:10:09.681Z,34.88
2017-07-08T11:11:09.327Z,35.29
2017-07-08T11:12:09.337Z,35.29
2017-07-08T11:13:09.036Z,34.7
2017-07-08T11:14:09.367Z,34.13
2017-07-08T11:15:09.798Z,35.02
2017-07-08T11:16:09.055Z,33.84
2017-07-08T11:17:09.061Z,34.13
2017-07-08T11:18:09.080Z,33.74
2017-07-08T11:19:09.081Z,34.42
2017-07-08T11:20:09.432Z,34.42
2017-07-08T11:21:09.097Z,35.8
2017-07-08T11:22:09.118Z,35.29
2017-07-08T11:23:12.788Z,35.1
2017-07-08T11:24:09.125Z,35
2017-07-08T11:25:35.226Z,36.35
2017-07-08T11:26:09.464Z,36.72
2017-07-08T11:27:09.472Z,37.02
2017-07-08T11:28:09.479Z,37.49
2017-07-08T11:29:09.489Z,39.45
2017-07-08T11:30:09.558Z,41.99
2017-07-08T11:31:09.507Z,40.41
2017-07-08T11:32:09.194Z,38.55
2017-07-08T11:33:09.523Z,38.55
2017-07-08T11:34:09.213Z,38.65
2017-07-08T11:35:09.888Z,38.55
2017-07-08T11:36:09.551Z,38.55
2017-07-08T11:37:09.238Z,39.41
2017-07-08T11:38:09.572Z,39.22
2017-07-08T11:39:09.255Z,39.22
2017-07-08T11:40:09.677Z,40.19
2017-07-08T11:41:09.352Z,39.12
2017-07-08T11:42:09.600Z,39.59
2017-07-08T11:43:09.288Z,39.8
2017-07-08T11:44:09.676Z,40.37
2017-07-08T11:45:09.709Z,40.08
2017-07-08T11:46:09.673Z,40.37
2017-07-08T11:47:09.333Z,40.17
2017-07-08T11:48:09.647Z,40.37
2017-07-08T11:49:09.661Z,39.41
2017-07-08T11:50:09.750Z,39.7
2017-07-08T11:51:09.672Z,40.47
2017-07-08T11:52:09.682Z,40.37
2017-07-08T11:53:09.367Z,40.37
2017-07-08T11:54:09.724Z,40.47
2017-07-08T11:55:10.119Z,40.86
2017-07-08T11:56:09.734Z,40.84
2017-07-08T11:57:09.723Z,40.56
2017-07-08T11:58:09.730Z,40.76
2017-07-08T11:59:09.424Z,40.66
2017-07-08T12:00:09.905Z,40.76
2017-07-08T12:01:09.769Z,40.56
2017-07-08T12:02:09.441Z,40.86
2017-07-08T12:03:09.768Z,41.83
2017-07-08T12:04:09.786Z,43.59
2017-07-08T12:05:10.260Z,44.09
2017-07-08T12:06:09.468Z,46.04
2017-07-08T12:07:09.802Z,46.01
2017-07-08T12:08:09.815Z,45.33
2017-07-08T12:09:09.815Z,45.72
2017-07-08T12:10:10.401Z,45.14
2017-07-08T12:11:09.507Z,43.57
2017-07-08T12:12:09.516Z,42.42
2017-07-08T12:13:09.527Z,40.95
2017-07-08T12:14:09.857Z,41.86
2017-07-08T12:15:10.411Z,44.79
2017-07-08T12:16:09.547Z,43.62
2017-07-08T12:17:09.882Z,40.21
2017-07-08T12:18:09.890Z,39.15
2017-07-08T12:19:10.371Z,39.06
2017-07-08T12:20:10.430Z,38.88
2017-07-08T12:21:09.601Z,37.71
2017-07-08T12:22:09.915Z,37.61
2017-07-08T12:23:09.603Z,37.82
2017-07-08T12:24:13.916Z,40.17
2017-07-08T12:25:09.999Z,41.52
2017-07-08T12:26:09.628Z,39.96
2017-07-08T12:27:09.639Z,41.6
2017-07-08T12:28:09.647Z,41.39
2017-07-08T12:29:09.992Z,40.41
2017-07-08T12:30:09.986Z,40.5
2017-07-08T12:31:09.686Z,40.41
2017-07-08T12:32:10.013Z,40.31
2017-07-08T12:33:10.018Z,42.46
2017-07-08T12:34:10.029Z,42.07
2017-07-08T12:35:10.172Z,40.31
2017-07-08T12:36:10.054Z,39.82
2017-07-08T12:37:10.053Z,39.43
2017-07-08T12:38:10.079Z,42.56
2017-07-08T12:39:09.754Z,44.32
2017-07-08T12:40:10.500Z,45.5
2017-07-08T12:41:09.766Z,42.56
2017-07-08T12:42:10.110Z,42.66
2017-07-08T12:43:10.105Z,40.11
2017-07-08T12:44:09.789Z,40.14
2017-07-08T12:45:10.434Z,39.64
2017-07-08T12:46:09.795Z,39.35
2017-07-08T12:47:09.806Z,40.14
2017-07-08T12:48:09.999Z,40.35
2017-07-08T12:49:09.830Z,41.52
2017-07-08T12:50:10.913Z,40.66
2017-07-08T12:51:10.178Z,41.94
2017-07-08T12:52:10.217Z,42.23
2017-07-08T12:53:10.198Z,42.23
2017-07-08T12:54:10.194Z,40.47
2017-07-08T12:55:10.981Z,40.94
2017-07-08T12:56:09.891Z,42.31
2017-07-08T12:57:09.935Z,40.84
2017-07-08T12:58:10.227Z,38.49
2017-07-08T12:59:10.237Z,38.1
2017-07-08T13:00:11.086Z,38.59
2017-07-08T13:01:10.279Z,38.68
2017-07-08T13:02:10.267Z,37.81
2017-07-08T13:03:10.284Z,37.9
2017-07-08T13:04:10.277Z,38.2
2017-07-08T13:05:11.012Z,38.98
2017-07-08T13:06:09.978Z,39.35
2017-07-08T13:07:10.307Z,38.96
2017-07-08T13:08:09.997Z,38.96
2017-07-08T13:09:10.325Z,39.14
2017-07-08T13:10:11.310Z,39.23
2017-07-08T13:11:10.030Z,38.75
2017-07-08T13:12:10.372Z,38.45
2017-07-08T13:13:10.358Z,38.75
2017-07-08T13:14:10.362Z,38.84
2017-07-08T13:15:10.775Z,38.16
2017-07-08T13:16:10.067Z,38.16
2017-07-08T13:17:10.390Z,38.16
2017-07-08T13:18:10.395Z,37.87
2017-07-08T13:19:10.446Z,37.87
2017-07-08T13:20:11.184Z,37.27
2017-07-08T13:21:10.429Z,36.69
2017-07-08T13:22:10.446Z,36.32
2017-07-08T13:23:10.142Z,36.88
2017-07-08T13:24:10.440Z,36.69
2017-07-08T13:25:16.173Z,36.79
2017-07-08T13:26:10.453Z,36.98
2017-07-08T13:27:10.154Z,37.16
2017-07-08T13:28:10.487Z,37.67
2017-07-08T13:29:10.164Z,37.45
2017-07-08T13:30:10.621Z,37.95
2017-07-08T13:31:10.173Z,37.55
2017-07-08T13:32:10.502Z,38.14
2017-07-08T13:33:10.192Z,37.95
2017-07-08T13:34:10.515Z,38.53
2017-07-08T13:35:11.411Z,38.9
2017-07-08T13:36:10.543Z,39.1
2017-07-08T13:37:10.225Z,39.39
2017-07-08T13:38:10.554Z,39.59
2017-07-08T13:39:10.233Z,40.17
2017-07-08T13:40:10.854Z,38.42
2017-07-08T13:41:10.593Z,36.55
2017-07-08T13:42:10.577Z,36.16
2017-07-08T13:43:10.595Z,35.58
2017-07-08T13:44:10.271Z,35.66
2017-07-08T13:45:10.900Z,36.54
2017-07-08T13:46:10.606Z,35.85
2017-07-08T13:47:10.615Z,36.05
2017-07-08T13:48:10.325Z,36.44
2017-07-08T13:49:10.635Z,36.93
2017-07-08T13:50:11.363Z,37.81
2017-07-08T13:51:10.695Z,37.91
2017-07-08T13:52:10.332Z,37.52
2017-07-08T13:53:10.340Z,37.43
2017-07-08T13:54:10.669Z,36.85
2017-07-08T13:55:10.955Z,37.62
2017-07-08T13:56:10.361Z,37.34
2017-07-08T13:57:10.692Z,37.54
2017-07-08T13:58:10.698Z,37.04
2017-07-08T13:59:10.713Z,37.43
2017-07-08T14:00:11.436Z,37.34
2017-07-08T14:01:10.725Z,37.54
2017-07-08T14:02:10.729Z,38.43
2017-07-08T14:03:10.414Z,39.51
2017-07-08T14:04:10.780Z,37.75
2017-07-08T14:05:11.055Z,37.35
2017-07-08T14:06:10.792Z,36.88
2017-07-08T14:07:11.040Z,36.4
2017-07-08T14:08:10.463Z,36.4
2017-07-08T14:09:10.465Z,36.51
2017-07-08T14:10:11.199Z,36.41
2017-07-08T14:11:10.526Z,36.32
2017-07-08T14:12:10.815Z,36.72
2017-07-08T14:13:10.519Z,36.9
2017-07-08T14:14:10.823Z,37
2017-07-08T14:15:11.706Z,37.1
2017-07-08T14:16:12.134Z,37.39
2017-07-08T14:17:10.849Z,37.77
2017-07-08T14:18:10.535Z,38.06
2017-07-08T14:19:10.561Z,38.26
2017-07-08T14:20:11.018Z,38.94
2017-07-08T14:21:10.911Z,38.94
2017-07-08T14:22:10.909Z,39.33
2017-07-08T14:23:10.572Z,39.53
2017-07-08T14:24:10.613Z,39.31
2017-07-08T14:25:11.922Z,39.22
2017-07-08T14:26:11.015Z,39.14
2017-07-08T14:27:10.930Z,39.22
2017-07-08T14:28:10.934Z,39.33
2017-07-08T14:29:10.945Z,39.51
2017-07-08T14:30:11.781Z,39.9
2017-07-08T14:31:10.965Z,39.41
2017-07-08T14:32:10.985Z,39.41
2017-07-08T14:33:11.034Z,40.09
2017-07-08T14:34:10.659Z,39.61
2017-07-08T14:35:11.492Z,39.62
2017-07-08T14:36:10.683Z,39.92
2017-07-08T14:37:11.007Z,38.06
2017-07-08T14:38:10.694Z,38.08
2017-07-08T14:39:11.026Z,38.08
2017-07-08T14:40:11.544Z,37.79
2017-07-08T14:41:12.087Z,36.32
2017-07-08T14:42:10.734Z,36.32
2017-07-08T14:43:11.065Z,35.65
2017-07-08T14:44:11.065Z,35.35
2017-07-08T14:45:12.008Z,35.16
2017-07-08T14:46:11.079Z,34.88
2017-07-08T14:47:11.085Z,34.2
2017-07-08T14:48:11.101Z,34.2
2017-07-08T14:49:11.101Z,33.61
2017-07-08T14:50:12.259Z,33.31
2017-07-08T14:51:10.796Z,33.51
2017-07-08T14:52:11.134Z,33.43
2017-07-08T14:53:11.139Z,32.54
2017-07-08T14:54:11.148Z,32.54
2017-07-08T14:55:12.041Z,33.04
2017-07-08T14:56:11.258Z,32.94
2017-07-08T14:57:11.218Z,33.61
2017-07-08T14:58:10.854Z,33.31
2017-07-08T14:59:10.865Z,33.9
2017-07-08T15:00:11.726Z,34.39
2017-07-08T15:01:11.202Z,33.53
2017-07-08T15:02:11.210Z,32.94
2017-07-08T15:03:11.222Z,33.43
2017-07-08T15:04:11.229Z,33.43
2017-07-08T15:05:11.826Z,33.12
2017-07-08T15:06:11.245Z,33.23
2017-07-08T15:07:10.938Z,32.64
2017-07-08T15:08:11.266Z,33.33
2017-07-08T15:09:11.268Z,32.84
2017-07-08T15:10:12.494Z,32.54
2017-07-08T15:11:11.289Z,32.07
2017-07-08T15:12:11.346Z,32.66
2017-07-08T15:13:10.980Z,33.15
2017-07-08T15:14:11.311Z,33.44
2017-07-08T15:44:31.529Z,38.47
2017-07-08T15:45:29.161Z,38.94
2017-07-08T15:46:29.163Z,38.96
2017-07-08T15:47:29.173Z,38.86
2017-07-08T15:48:29.493Z,39.15
2017-07-08T15:49:29.191Z,38.96
2017-07-08T15:50:29.501Z,38.86
2017-07-08T15:51:29.513Z,39.45
2017-07-08T15:52:29.524Z,38.57
2017-07-08T15:53:29.528Z,37.79
2017-07-08T15:54:29.208Z,37.88
2017-07-08T15:55:29.535Z,37.79
2017-07-08T15:56:29.541Z,37.69
2017-07-08T15:57:29.551Z,38.08
2017-07-08T15:58:29.554Z,38.08
2017-07-08T15:59:29.574Z,38.08
2017-07-08T16:00:29.249Z,39.15
2017-07-08T16:01:29.260Z,39.25
2017-07-08T16:02:29.581Z,39.45
2017-07-08T16:03:29.594Z,38.06
2017-07-08T16:04:29.292Z,37.67
2017-07-08T16:05:29.603Z,37.67
2017-07-08T16:06:29.623Z,37.96
2017-07-08T16:07:29.623Z,38.16
2017-07-08T16:08:29.629Z,38.55
2017-07-08T16:09:29.315Z,38.45
2017-07-08T16:10:29.333Z,38.84
2017-07-08T16:11:29.331Z,39.23
2017-07-08T16:12:29.664Z,39.33
2017-07-08T16:13:29.361Z,39.53
2017-07-08T16:14:29.360Z,38.75
2017-07-08T16:15:29.683Z,38.06
2017-07-08T16:16:29.368Z,38.35
2017-07-08T16:17:29.697Z,39.04
2017-07-08T16:18:29.384Z,39.53
2017-07-08T16:19:29.712Z,39.53
2017-07-08T16:20:29.726Z,38.26
2017-07-08T16:21:29.728Z,38.65
2017-07-08T16:22:29.419Z,37.79
2017-07-08T16:23:29.801Z,37.79
2017-07-08T16:24:29.799Z,37.69
2017-07-08T16:25:29.438Z,37.88
2017-07-08T16:26:29.764Z,36.71
2017-07-08T16:27:29.802Z,36.9
2017-07-08T16:28:29.788Z,36.71
2017-07-08T16:29:29.801Z,36.63
2017-07-08T16:30:31.129Z,36.71
2017-07-08T16:31:29.806Z,36.41
2017-07-08T16:32:29.492Z,36.71
2017-07-08T16:33:29.501Z,36.53
2017-07-08T16:34:29.830Z,36.22
2017-07-08T16:35:29.838Z,35.55
2017-07-08T16:36:29.851Z,35.53
2017-07-08T16:37:29.861Z,35.16
2017-07-08T16:38:29.860Z,34.86
2017-07-08T16:39:29.876Z,34.77
2017-07-08T16:40:29.891Z,33.79
2017-07-08T16:41:29.893Z,33.59
2017-07-08T16:42:29.572Z,33.39
2017-07-08T16:43:29.902Z,36.24
2017-07-08T16:44:29.909Z,36.53
2017-07-08T16:45:31.868Z,34.38
2017-07-08T16:46:29.615Z,33.39
2017-07-08T16:47:29.940Z,33.5
2017-07-08T16:48:29.948Z,33.89
2017-07-08T16:49:29.961Z,33.79
2017-07-08T16:50:29.961Z,33.59
2017-07-08T16:51:29.969Z,33.5
2017-07-08T16:52:29.971Z,33.39
2017-07-08T16:53:29.980Z,32.61
2017-07-08T16:54:29.987Z,33.39
2017-07-08T16:55:29.998Z,33.29
2017-07-08T16:56:29.694Z,33.39
2017-07-08T16:57:30.014Z,33.5
2017-07-08T16:58:29.704Z,33.39
2017-07-08T16:59:29.711Z,33.59
2017-07-08T17:00:29.715Z,32.9
2017-07-08T17:01:29.732Z,33.59
2017-07-08T17:02:30.053Z,33.29
2017-07-08T17:03:30.061Z,33.1
2017-07-08T17:04:30.067Z,33.39
2017-07-08T17:05:30.076Z,33
2017-07-08T17:06:30.082Z,32.81
2017-07-08T17:07:29.769Z,32.32
2017-07-08T17:08:29.782Z,32.22
2017-07-08T17:09:29.788Z,32.51
2017-07-08T17:10:30.119Z,32.1
2017-07-08T17:11:29.801Z,33.77
2017-07-08T17:12:30.132Z,32.79
2017-07-08T17:13:29.819Z,32.6
2017-07-08T17:14:30.148Z,32.51
2017-07-08T17:15:30.155Z,32.51
2017-07-08T17:16:30.161Z,32.22
2017-07-08T17:17:30.170Z,31.83
2017-07-08T17:18:30.189Z,32.22
2017-07-08T17:19:30.193Z,32.01
2017-07-08T17:20:30.194Z,32.32
2017-07-08T17:21:30.205Z,32.51
2017-07-08T17:22:30.212Z,32.32
2017-07-08T17:23:29.906Z,32.12
2017-07-08T17:24:29.909Z,32.42
2017-07-08T17:25:30.235Z,31.54
2017-07-08T17:26:30.245Z,32.12
2017-07-08T17:27:30.254Z,31.83
2017-07-08T17:28:30.260Z,32.3
2017-07-08T17:29:29.956Z,32.3
2017-07-08T17:30:29.954Z,32.9
2017-07-08T17:31:32.524Z,33.77
2017-07-08T17:32:30.295Z,33.38
2017-07-08T17:33:29.980Z,33.67
2017-07-08T17:34:30.306Z,33.58
2017-07-08T17:35:30.315Z,33.28
2017-07-08T17:36:30.324Z,32.6
2017-07-08T17:37:30.335Z,32.6
2017-07-08T17:38:30.338Z,32.5
2017-07-08T17:39:30.349Z,32.89
2017-07-08T17:40:30.357Z,32.79
2017-07-08T17:41:30.041Z,33.38
2017-07-08T17:42:30.371Z,33.58
2017-07-08T17:43:30.379Z,33.58
2017-07-08T17:44:30.386Z,33.28
2017-07-08T17:45:30.391Z,33.09
2017-07-08T17:46:30.406Z,33.48
2017-07-08T17:47:30.087Z,32.99
2017-07-08T17:48:30.096Z,33.97
2017-07-08T17:49:30.424Z,33.65
2017-07-08T17:50:30.110Z,33.75
2017-07-08T17:51:30.119Z,34.05
2017-07-08T17:52:30.446Z,33.75
2017-07-08T17:53:30.458Z,33.56
2017-07-08T17:54:30.144Z,33.26
2017-07-08T17:55:30.148Z,33.36
2017-07-08T17:56:30.477Z,33.64
2017-07-08T17:57:30.483Z,33.94
2017-07-08T17:58:30.173Z,34.13
2017-07-08T17:59:30.525Z,35.11
2017-07-08T18:00:30.201Z,35.01
2017-07-08T18:01:30.524Z,35.69
2017-07-08T18:02:30.204Z,35.6
2017-07-08T18:03:56.350Z,35.5
2017-07-08T18:04:30.541Z,35.97
2017-07-08T18:05:30.225Z,35.97
2017-07-08T18:06:30.233Z,38.92
2017-07-08T18:07:30.559Z,37.75
2017-07-08T18:08:30.255Z,36.46
2017-07-08T18:09:30.581Z,36.75
2017-07-08T18:10:30.583Z,36.26
2017-07-08T18:11:30.271Z,36.26
2017-07-08T18:12:30.597Z,36.75
2017-07-08T18:13:30.285Z,36.93
2017-07-08T18:14:30.613Z,36.93
2017-07-08T18:15:30.300Z,36.73
2017-07-08T18:16:30.632Z,36.83
2017-07-08T18:17:32.590Z,36.83
2017-07-08T18:18:30.644Z,36.93
2017-07-08T18:19:30.650Z,37.22
2017-07-08T18:20:30.667Z,37.91
2017-07-08T18:21:30.346Z,37.81
2017-07-08T18:22:30.668Z,37.71
2017-07-08T18:23:30.679Z,37.62
2017-07-08T18:24:30.685Z,38.79
2017-07-08T18:25:30.691Z,38.98
2017-07-08T18:26:30.383Z,37.99
2017-07-08T18:27:30.403Z,37.01
2017-07-08T18:28:30.734Z,36.82
2017-07-08T18:29:30.404Z,37.11
2017-07-08T18:30:30.474Z,37.4
2017-07-08T18:31:30.737Z,36.8
2017-07-08T18:32:30.524Z,36.7
2017-07-08T18:33:30.430Z,37.19
2017-07-08T18:34:30.758Z,37.5
2017-07-08T18:35:30.444Z,37.38
2017-07-08T18:36:30.786Z,36.9
2017-07-08T18:37:30.460Z,36.8
2017-07-08T18:38:30.472Z,36.9
2017-07-08T18:39:30.797Z,36.9
2017-07-08T18:40:30.820Z,36.9
2017-07-08T18:41:30.848Z,37.29
2017-07-08T18:42:30.836Z,37.38
2017-07-08T18:43:30.822Z,37.67
2017-07-08T18:44:30.827Z,37.87
2017-07-08T18:45:30.848Z,38.06
2017-07-08T18:46:30.534Z,38.65
2017-07-08T18:47:31.736Z,38.34
2017-07-08T18:48:30.547Z,38.75
2017-07-08T18:49:30.542Z,38.43
2017-07-08T18:50:30.548Z,39.51
2017-07-08T18:51:30.558Z,41.17
2017-07-08T18:52:30.561Z,41.95
2017-07-08T18:53:30.568Z,42.24
2017-07-08T18:54:30.583Z,41.27
2017-07-08T18:55:30.603Z,41.07
2017-07-08T18:56:30.914Z,40.39
2017-07-08T18:57:30.923Z,39.88
2017-07-08T18:58:30.930Z,39.1
2017-07-08T18:59:30.655Z,40.17
2017-07-08T19:00:30.934Z,42.8
2017-07-08T19:01:30.623Z,45.12
2017-07-08T19:02:30.627Z,45.71
2017-07-08T19:03:30.637Z,45.9
2017-07-08T19:04:30.963Z,46.56
2017-07-08T19:05:30.970Z,47.63
2017-07-08T19:06:30.657Z,47.73
2017-07-08T19:07:30.664Z,48.41
2017-07-08T19:08:30.672Z,48.9
2017-07-08T19:09:30.675Z,49.78
2017-07-08T19:10:31.005Z,50.43
2017-07-08T19:11:30.690Z,50.92
2017-07-08T19:12:31.012Z,51.8
2017-07-08T19:13:31.028Z,51.61
2017-07-08T19:14:30.706Z,51.51
2017-07-08T19:15:30.714Z,51.21
2017-07-08T19:16:30.774Z,51.02
2017-07-08T19:17:30.738Z,50.82
2017-07-08T19:18:31.057Z,50.73
2017-07-08T19:19:31.058Z,50.53
2017-07-08T19:20:31.074Z,49.95
2017-07-08T19:21:31.073Z,49.85
2017-07-08T19:22:30.756Z,49.56
2017-07-08T19:23:30.773Z,49.07
2017-07-08T19:24:31.102Z,49.07
2017-07-08T19:25:30.783Z,48.97
2017-07-08T19:26:31.103Z,47.71
2017-07-08T19:27:30.798Z,47.32
2017-07-08T19:28:30.798Z,47.03
2017-07-08T19:29:30.802Z,47.8
2017-07-08T19:30:30.807Z,47.52
2017-07-08T19:31:31.134Z,48.1
2017-07-08T19:32:31.224Z,48.68
2017-07-08T19:33:31.161Z,49.95
2017-07-08T19:34:30.841Z,50.82
2017-07-08T19:35:30.849Z,51.51
2017-07-08T19:36:31.166Z,51.87
2017-07-08T19:37:31.172Z,52.67
2017-07-08T19:38:31.180Z,53.23
2017-07-08T19:39:31.190Z,53.33
2017-07-08T19:40:31.192Z,54.5
2017-07-08T19:41:31.194Z,55.79
2017-07-08T19:42:31.202Z,57.03
2017-07-08T19:43:31.213Z,57.51
2017-07-08T19:44:31.221Z,57.81
2017-07-08T19:45:31.232Z,57.12
2017-07-08T19:46:31.226Z,57.71
2017-07-08T19:47:31.233Z,57.78
2017-07-08T19:48:33.995Z,57.78
2017-07-08T19:49:30.929Z,58.26
2017-07-08T19:50:30.941Z,58.75
2017-07-08T19:51:31.262Z,58.95
2017-07-08T19:52:31.263Z,59.33
2017-07-08T19:53:31.267Z,59.23
2017-07-08T19:54:31.292Z,59.21
2017-07-08T19:55:30.959Z,59.5
2017-07-08T19:56:31.288Z,59.59
2017-07-08T19:57:31.291Z,60.11
2017-07-08T19:58:31.042Z,60.08
2017-07-08T19:59:31.344Z,59.89
2017-07-08T20:00:30.998Z,59.99
2017-07-08T20:01:31.026Z,60.18
2017-07-08T20:02:31.326Z,59.59
2017-07-08T20:03:31.324Z,59.99
2017-07-08T20:04:31.338Z,60.47
2017-07-08T20:05:31.031Z,60.47
2017-07-08T20:06:31.360Z,60.47
2017-07-08T20:07:31.352Z,60.38
2017-07-08T20:08:31.091Z,59.99
2017-07-08T20:09:31.361Z,60.28
2017-07-08T20:10:31.379Z,59.95
2017-07-08T20:11:31.054Z,60.05
2017-07-08T20:12:31.408Z,59.76
2017-07-08T20:13:31.390Z,59.67
2017-07-08T20:14:31.399Z,59.76
2017-07-08T20:15:31.078Z,60.05
2017-07-08T20:16:31.421Z,60.05
2017-07-08T20:17:31.167Z,60.35
2017-07-08T20:18:31.108Z,60.25
2017-07-08T20:19:31.507Z,60.74
